• Join FlightAware (Why Join?)
  • Login
  • US Flag 
03:50PM EDT


 

Airport Tracker/Info


-or-


 

Live Flight TrackerFlight Track Log ✈ ASQ4577 ✈ 10-Sep-2013 ✈ KCLE - KIND

Flight Track Log - Related Links

Times and Time Zones

All times are in EDT time to prevent confusion due to time zone crossing. See the ASQ4577 flight status page for this flight to view local times or setup timezone preferences in your user account.

Time Position Orientation Groundspeed Altitude Reporting Facility
EDT Latitude Longitude Course Direction KTS MPH feet Rate Location/Type
08:36AM 41.3917 -81.8978 259° West 165 190 2,100  Level Cleveland Center
08:37AM 41.3744 -81.9444 244° Southwest 218 251 2,700 1,020 Climbing Cleveland Center
08:37AM 41.3678 -81.9775 255° West 295 339 3,300 1,860 Climbing Cleveland Center
08:38AM 41.3417 -82.0656 248° West 256 295 5,400 2,160 Climbing Cleveland Center
08:39AM 41.3133 -82.1533 247° West 256 295 7,700 2,100 Climbing Cleveland Center
08:40AM 41.2533 -82.2939 242° Southwest  Level Estimated
08:40AM 41.2869 -82.2439 249° West 261 300 9,700  Level Cleveland Center
08:41AM 41.2140 -82.4034 240° Southwest  Level Estimated
08:41AM 41.2564 -82.3425 248° West 279 321 10,600  Level Cleveland Center
08:42AM 41.1746 -82.5127 259° West  Level Estimated
08:42AM 41.2233 -82.4550 249° West 318 366 11,200  Level Cleveland Center
08:43AM 41.1775 -82.5694 242° Southwest 342 394 12,200 1,140 Climbing Cleveland Center
08:44AM 41.1317 -82.6894 243° Southwest 359 413 13,500 1,140 Climbing Cleveland Center
08:45AM 41.0983 -82.7958 247° West 359 413 14,500 1,080 Climbing Cleveland Center
08:46AM 41.0586 -82.9156 246° West 359 413 15,700 1,200 Climbing Cleveland Center
08:47AM 41.0203 -83.0436 248° West 365 420 17,000 1,200 Climbing Cleveland Center
08:48AM 40.9800 -83.1658 246° West 370 426 18,100 1,140 Climbing Cleveland Center
08:49AM 40.9397 -83.2908 247° West 375 432 19,300 1,200 Climbing Cleveland Center
08:50AM 40.9011 -83.4156 248° West 375 432 20,600 1,260 Climbing Cleveland Center
08:51AM 40.8747 -83.4992 247° West 371 427 21,400 840 Climbing Indianapolis Center
08:52AM 40.8322 -83.6253 246° West 372 428 22,000 240 Climbing Indianapolis Center
08:53AM 40.7875 -83.7617 247° West 398 458 22,000  Level Indianapolis Center
08:54AM 40.7428 -83.8994 247° West 413 475 22,000  Level Indianapolis Center
08:55AM 40.6947 -84.0417 246° West 426 490 22,000  Level Indianapolis Center
08:56AM 40.6483 -84.1853 247° West 427 491 22,000  Level Indianapolis Center
08:57AM 40.5897 -84.3589 246° West 434 499 22,000  Level Indianapolis Center
08:58AM 40.5422 -84.5033 247° West 434 499 22,000  Level Indianapolis Center
08:59AM 40.4919 -84.6489 246° West 439 505 22,000  Level Indianapolis Center
09:00AM 40.4428 -84.7939 246° West 436 502 22,000  Level Indianapolis Center
09:01AM 40.3928 -84.9392 246° West 438 504 22,000  Level Indianapolis Center
09:02AM 40.3433 -85.0847 246° West 438 504 22,000  Level Indianapolis Center
09:03AM 40.2833 -85.2592 246° West 439 505 22,000 -1,560 Level Indianapolis Center
09:04AM 40.2344 -85.4014 246° West 433 498 18,800 -3,180 Descending Indianapolis Center
09:05AM 40.1836 -85.5197 241° Southwest 387 445 15,500 -3,180 Descending Indianapolis Center
09:06AM 40.1358 -85.6297 240° Southwest 359 413 12,400 -2,400 Descending Indianapolis Center
09:07AM 40.0950 -85.7267 241° Southwest 320 368 10,600 -1,800 Descending Indianapolis Center
09:08AM 40.0569 -85.8125 240° Southwest 282 325 8,800 -1,620 Descending Indianapolis Center
09:09AM 40.0142 -85.9117 241° Southwest 266 306 7,300 -1,140 Descending Indianapolis Center
09:11AM 39.9678 -85.9858 231° Southwest 266 306 6,500 -960 Descending Indianapolis Center
09:12AM 39.9158 -86.0525 225° Southwest 265 305 5,400 -1,080 Descending Indianapolis Center
09:13AM 39.8642 -86.1192 225° Southwest 263 303 4,300 -1,140 Descending Indianapolis Center
09:14AM 39.8133 -86.1844 225° Southwest 261 300 3,100 -1,140 Descending Indianapolis Center
09:15AM 39.7719 -86.2378 225° Southwest 229 264 2,000 -900 Descending Indianapolis Center
09:16AM 39.7425 -86.2744 224° Southwest 180 207 1,300 -600 Descending Indianapolis Center
09:17AM 39.7139 -86.3131 226° Southwest 156 180 800 -480 Descending Indianapolis Center